createdAt,value
2018-04-11T00:00:37.554Z,50.67
2018-04-11T00:01:41.922Z,49.33
2018-04-11T00:02:47.271Z,51.13
2018-04-11T00:04:00.384Z,54.97
2018-04-11T00:05:06.125Z,54.27
2018-04-11T00:06:10.913Z,45.60
2018-04-11T00:07:15.165Z,46.10
2018-04-11T00:08:21.323Z,49.97
2018-04-11T00:09:33.391Z,57.17
2018-04-11T00:10:39.296Z,53.70
2018-04-11T00:11:43.516Z,47.00
2018-04-11T00:12:47.725Z,50.87
2018-04-11T00:13:59.019Z,50.43
2018-04-11T00:15:05.172Z,49.87
2018-04-11T00:16:11.403Z,46.40
2018-04-11T00:17:15.631Z,52.30
2018-04-11T00:18:19.855Z,50.83
2018-04-11T00:19:31.416Z,55.23
2018-04-11T00:20:38.129Z,46.37
2018-04-11T00:21:42.412Z,44.57
2018-04-11T00:22:46.642Z,51.87
2018-04-11T00:23:55.836Z,55.23
2018-04-11T00:25:05.242Z,45.53
2018-04-11T00:26:11.173Z,52.63
2018-04-11T00:27:15.456Z,46.53
2018-04-11T00:28:19.666Z,42.27
2018-04-11T00:29:30.875Z,51.13
2018-04-11T00:30:36.161Z,46.47
2018-04-11T00:31:41.791Z,52.37
2018-04-11T00:32:46.031Z,57.37
2018-04-11T00:33:50.314Z,44.00
2018-04-11T00:35:01.108Z,49.57
2018-04-11T00:36:08.487Z,51.63
2018-04-11T00:37:12.800Z,52.17
2018-04-11T00:38:17.423Z,48.17
2018-04-11T00:39:27.262Z,50.63
2018-04-11T00:40:34.235Z,44.07
2018-04-11T00:41:42.261Z,47.50
2018-04-11T00:42:46.480Z,54.20
2018-04-11T00:43:52.991Z,45.20
2018-04-11T00:45:01.992Z,45.90
2018-04-11T00:46:10.293Z,53.13
2018-04-11T00:47:15.294Z,47.70
2018-04-11T00:48:19.494Z,53.73
2018-04-11T00:49:30.691Z,57.03
2018-04-11T00:50:37.735Z,46.87
2018-04-11T00:51:42.011Z,50.13
2018-04-11T00:53:06.353Z,46.90
2018-04-11T00:54:11.503Z,49.90
2018-04-11T00:55:15.717Z,52.97
2018-04-11T00:56:20.004Z,49.60
2018-04-11T00:57:30.747Z,52.67
2018-04-11T00:58:37.882Z,54.37
2018-04-11T00:59:42.871Z,49.20
2018-04-11T01:00:47.074Z,50.80
2018-04-11T01:01:53.926Z,46.30
2018-04-11T01:03:02.422Z,53.17
2018-04-11T01:04:08.306Z,50.47
2018-04-11T01:05:12.559Z,47.50
2018-04-11T01:06:16.760Z,46.50
2018-04-11T01:07:26.321Z,51.20
2018-04-11T01:08:34.300Z,50.30
2018-04-11T01:09:39.865Z,56.63
2018-04-11T01:10:44.837Z,43.80
2018-04-11T01:11:49.076Z,47.17
2018-04-11T01:13:00.749Z,46.73
2018-04-11T01:14:06.692Z,52.03
2018-04-11T01:15:11.120Z,48.50
2018-04-11T01:16:15.329Z,45.47
2018-04-11T01:17:19.572Z,53.13
2018-04-11T01:18:29.440Z,44.87
2018-04-11T01:19:34.785Z,43.80
2018-04-11T01:20:39.988Z,52.50
2018-04-11T01:21:44.980Z,54.03
2018-04-11T01:22:49.223Z,53.27
2018-04-11T01:24:02.051Z,50.40
2018-04-11T01:25:07.694Z,45.40
2018-04-11T01:26:13.072Z,46.73
2018-04-11T01:27:17.303Z,54.00
2018-04-11T01:28:24.920Z,49.53
2018-04-11T01:29:31.784Z,44.97
2018-04-11T01:30:38.070Z,43.93
2018-04-11T01:31:42.367Z,49.70
2018-04-11T01:32:46.583Z,44.83
2018-04-11T01:33:53.422Z,50.10
2018-04-11T01:35:01.410Z,42.63
2018-04-11T01:36:07.914Z,48.73
2018-04-11T01:37:12.180Z,50.97
2018-04-11T01:38:16.376Z,44.07
2018-04-11T01:39:24.684Z,50.50
2018-04-11T01:40:32.472Z,43.23
2018-04-11T01:41:39.079Z,45.70
2018-04-11T01:42:43.346Z,43.60
2018-04-11T01:43:48.331Z,43.23
2018-04-11T01:45:00.454Z,48.53
2018-04-11T01:46:08.573Z,39.27
2018-04-11T01:47:12.841Z,42.60
2018-04-11T01:48:17.098Z,48.50
2018-04-11T01:49:28.849Z,47.00
2018-04-11T01:50:38.261Z,48.20
2018-04-11T01:51:42.498Z,48.63
2018-04-11T01:52:46.696Z,45.47
2018-04-11T01:53:57.928Z,45.67
2018-04-11T01:55:07.281Z,44.20
2018-04-11T01:56:13.103Z,50.43
2018-04-11T01:57:17.313Z,40.40
2018-04-11T01:58:36.284Z,49.03
2018-04-11T01:59:41.447Z,51.87
2018-04-11T02:00:45.670Z,42.03
2018-04-11T02:01:51.819Z,41.00
2018-04-11T02:03:06.312Z,42.87
2018-04-11T02:04:10.752Z,42.30
2018-04-11T02:05:14.971Z,50.77
2018-04-11T02:06:19.170Z,47.73
2018-04-11T02:07:29.996Z,45.40
2018-04-11T02:08:36.660Z,46.70
2018-04-11T02:09:41.006Z,48.60
2018-04-11T02:10:45.221Z,44.40
2018-04-11T02:11:50.282Z,48.73
2018-04-11T02:13:02.492Z,45.97
2018-04-11T02:14:08.999Z,55.10
2018-04-11T02:15:13.990Z,48.57
2018-04-11T02:16:30.070Z,48.53
2018-04-11T02:17:40.197Z,49.33
2018-04-11T02:18:44.427Z,49.37
2018-04-11T02:19:48.698Z,48.97
2018-04-11T02:21:01.412Z,52.60
2018-04-11T02:22:07.475Z,46.33
2018-04-11T02:23:12.437Z,49.13
2018-04-11T02:24:16.633Z,48.63
2018-04-11T02:25:25.097Z,45.70
2018-04-11T02:26:32.783Z,46.97
2018-04-11T02:27:39.244Z,46.50
2018-04-11T02:28:44.458Z,41.63
2018-04-11T02:29:48.668Z,49.03
2018-04-11T02:30:59.724Z,46.20
2018-04-11T02:32:06.311Z,46.37
2018-04-11T02:33:11.787Z,50.83
2018-04-11T02:34:16.837Z,58.50
2018-04-11T02:35:27.834Z,46.33
2018-04-11T02:36:35.815Z,41.10
2018-04-11T02:37:40.232Z,49.90
2018-04-11T02:38:44.438Z,43.20
2018-04-11T02:39:48.978Z,45.50
2018-04-11T02:41:04.616Z,49.53
2018-04-11T02:42:10.046Z,44.70
2018-04-11T02:43:15.016Z,43.37
2018-04-11T02:44:19.235Z,47.17
2018-04-11T02:45:29.733Z,45.63
2018-04-11T02:46:36.507Z,48.40
2018-04-11T02:47:41.107Z,43.47
2018-04-11T02:48:45.323Z,51.33
2018-04-11T02:49:49.532Z,44.33
2018-04-11T02:51:03.669Z,57.43
2018-04-11T02:52:09.885Z,46.17
2018-04-11T02:53:14.137Z,46.23
2018-04-11T02:54:18.372Z,50.10
2018-04-11T02:55:27.350Z,43.70
2018-04-11T02:56:35.695Z,43.23
2018-04-11T02:57:41.113Z,40.07
2018-04-11T02:58:45.313Z,42.73
2018-04-11T02:59:49.512Z,42.83
2018-04-11T03:00:58.811Z,42.13
2018-04-11T03:02:06.293Z,43.60
2018-04-11T03:03:10.750Z,43.03
2018-04-11T03:04:14.965Z,42.73
2018-04-11T03:05:19.163Z,43.80
2018-04-11T03:06:28.569Z,40.30
2018-04-11T03:07:35.016Z,43.53
2018-04-11T03:08:39.561Z,48.17
2018-04-11T03:09:44.537Z,45.23
2018-04-11T03:10:48.735Z,45.70
2018-04-11T03:11:57.566Z,50.50
2018-04-11T03:13:05.135Z,46.30
2018-04-11T03:14:15.686Z,50.30
2018-04-11T03:15:24.297Z,43.30
2018-04-11T03:16:30.038Z,42.00
2018-04-11T03:17:35.472Z,43.77
2018-04-11T03:18:39.742Z,43.47
2018-04-11T03:19:43.966Z,50.80
2018-04-11T03:20:48.179Z,44.17
2018-04-11T03:21:58.231Z,42.60
2018-04-11T03:23:04.078Z,51.00
2018-04-11T03:24:08.995Z,42.10
2018-04-11T03:25:13.200Z,48.47
2018-04-11T03:26:17.436Z,42.70
2018-04-11T03:27:25.470Z,41.50
2018-04-11T03:28:31.243Z,50.30
2018-04-11T03:29:35.856Z,39.77
2018-04-11T03:30:40.889Z,41.77
2018-04-11T03:31:45.098Z,40.43
2018-04-11T03:32:49.303Z,44.43
2018-04-11T03:33:59.047Z,49.10
2018-04-11T03:35:06.836Z,40.60
2018-04-11T03:36:11.081Z,38.10
2018-04-11T03:37:15.273Z,43.40
2018-04-11T03:38:19.482Z,47.67
2018-04-11T03:39:28.428Z,41.80
2018-04-11T03:40:35.644Z,42.30
2018-04-11T03:41:39.926Z,38.00
2018-04-11T03:42:44.133Z,37.67
2018-04-11T03:43:48.348Z,38.67
2018-04-11T03:45:00.124Z,37.97
2018-04-11T03:46:09.495Z,45.73
2018-04-11T03:47:14.469Z,42.03
2018-04-11T03:48:18.683Z,41.07
2018-04-11T03:49:28.027Z,41.63
2018-04-11T03:50:35.462Z,41.27
2018-04-11T03:51:40.160Z,43.63
2018-04-11T03:52:44.405Z,40.40
2018-04-11T03:53:49.409Z,38.83
2018-04-11T03:54:58.758Z,44.40
2018-04-11T03:56:06.391Z,38.70
2018-04-11T03:57:10.867Z,47.43
2018-04-11T03:58:15.822Z,42.77
2018-04-11T03:59:20.082Z,39.07
2018-04-11T04:00:30.228Z,48.90
2018-04-11T04:01:36.947Z,44.33
2018-04-11T04:02:41.234Z,39.47
2018-04-11T04:03:45.434Z,45.17
2018-04-11T04:04:49.697Z,53.30
2018-04-11T04:05:57.376Z,40.33
2018-04-11T04:07:05.620Z,40.57
2018-04-11T04:08:10.019Z,41.40
2018-04-11T04:09:14.217Z,44.53
2018-04-11T04:10:18.438Z,45.30
2018-04-11T04:11:25.078Z,46.80
2018-04-11T04:12:31.292Z,44.03
2018-04-11T04:13:53.907Z,37.90
2018-04-11T04:15:16.894Z,42.43
2018-04-11T04:16:38.902Z,41.20
2018-04-11T04:18:01.206Z,47.63
2018-04-11T04:19:24.106Z,46.20
2018-04-11T04:20:37.506Z,46.57
2018-04-11T04:21:42.127Z,41.40
2018-04-11T04:22:46.329Z,48.80
2018-04-11T04:23:52.895Z,40.77
2018-04-11T04:25:00.928Z,45.73
2018-04-11T04:26:06.316Z,42.43
2018-04-11T04:27:10.720Z,50.87
2018-04-11T04:28:15.685Z,45.07
2018-04-11T04:29:19.973Z,41.87
2018-04-11T04:30:30.227Z,39.27
2018-04-11T04:31:36.205Z,45.77
2018-04-11T04:32:40.460Z,44.80
2018-04-11T04:33:44.670Z,39.00
2018-04-11T04:34:48.883Z,47.73
2018-04-11T04:35:58.291Z,40.00
2018-04-11T04:37:03.098Z,40.60
2018-04-11T04:38:07.439Z,42.50
2018-04-11T04:39:11.693Z,40.93
2018-04-11T04:40:16.663Z,50.50
2018-04-11T04:41:21.896Z,41.60
2018-04-11T04:42:29.581Z,47.17
2018-04-11T04:43:38.044Z,45.47
2018-04-11T04:44:42.299Z,45.73
2018-04-11T04:45:46.485Z,41.90
2018-04-11T04:46:51.428Z,42.20
2018-04-11T04:48:23.068Z,46.77
2018-04-11T04:49:31.506Z,42.07
2018-04-11T04:50:37.886Z,43.07
2018-04-11T04:51:42.146Z,47.50
2018-04-11T04:52:46.349Z,48.13
2018-04-11T04:53:53.035Z,39.93
2018-04-11T04:55:07.421Z,46.93
2018-04-11T04:56:11.636Z,44.13
2018-04-11T04:57:15.825Z,39.07
2018-04-11T04:58:22.009Z,43.03
2018-04-11T04:59:29.053Z,44.90
2018-04-11T05:00:34.120Z,38.80
2018-04-11T05:01:39.252Z,51.20
2018-04-11T05:02:43.460Z,38.57
2018-04-11T05:03:47.667Z,47.73
2018-04-11T05:04:54.774Z,46.50
2018-04-11T05:06:00.390Z,37.43
2018-04-11T05:07:06.034Z,43.03
2018-04-11T05:08:10.343Z,41.43
2018-04-11T05:09:14.808Z,45.93
2018-04-11T05:10:19.044Z,39.90
2018-04-11T05:11:26.133Z,44.90
2018-04-11T05:12:32.444Z,38.23
2018-04-11T05:13:38.352Z,49.17
2018-04-11T05:14:42.562Z,48.03
2018-04-11T05:15:47.539Z,42.90
2018-04-11T05:16:54.179Z,46.87
2018-04-11T05:17:59.814Z,41.70
2018-04-11T05:19:04.545Z,48.80
2018-04-11T05:20:08.798Z,47.23
2018-04-11T05:21:13.024Z,49.30
2018-04-11T05:22:17.229Z,46.40
2018-04-11T05:23:22.629Z,43.03
2018-04-11T05:24:29.389Z,40.77
2018-04-11T05:25:35.747Z,39.97
2018-04-11T05:26:40.018Z,42.27
2018-04-11T05:27:44.210Z,40.67
2018-04-11T05:28:48.419Z,46.37
2018-04-11T05:29:57.583Z,47.03
2018-04-11T05:31:02.715Z,42.60
2018-04-11T05:32:08.312Z,47.70
2018-04-11T05:33:12.559Z,40.27
2018-04-11T05:34:17.533Z,51.13
2018-04-11T05:35:22.148Z,45.50
2018-04-11T05:36:32.336Z,39.53
2018-04-11T05:37:39.619Z,42.40
2018-04-11T05:38:43.826Z,47.03
2018-04-11T05:39:48.036Z,39.60
2018-04-11T05:40:58.787Z,41.40
2018-04-11T05:42:05.960Z,37.97
2018-04-11T05:43:22.455Z,40.27
2018-04-11T05:44:32.289Z,45.40
2018-04-11T05:45:38.806Z,41.97
2018-04-11T05:46:43.023Z,47.50
2018-04-11T05:47:47.230Z,45.30
2018-04-11T05:48:54.437Z,37.37
2018-04-11T05:50:00.641Z,39.40
2018-04-11T05:51:09.281Z,41.30
2018-04-11T05:52:13.581Z,36.60
2018-04-11T05:53:17.793Z,51.70
2018-04-11T05:54:29.278Z,38.70
2018-04-11T05:55:37.770Z,45.70
2018-04-11T05:56:42.052Z,37.67
2018-04-11T05:57:46.241Z,38.93
2018-04-11T05:58:58.704Z,40.03
2018-04-11T06:00:07.513Z,48.70
2018-04-11T06:01:12.464Z,50.07
2018-04-11T06:02:16.676Z,53.73
2018-04-11T06:03:21.763Z,44.97
2018-04-11T06:04:32.580Z,41.63
2018-04-11T06:05:39.662Z,41.57
2018-04-11T06:06:44.130Z,47.83
2018-04-11T06:07:48.336Z,42.60
2018-04-11T06:09:00.904Z,40.73
2018-04-11T06:10:07.135Z,41.63
2018-04-11T06:11:11.404Z,46.00
2018-04-11T06:12:15.619Z,44.80
2018-04-11T06:13:19.815Z,35.07
2018-04-11T06:14:36.505Z,38.23
2018-04-11T06:15:41.594Z,39.83
2018-04-11T06:16:45.794Z,39.63
2018-04-11T06:17:50.051Z,38.00
2018-04-11T06:19:03.604Z,41.13
2018-04-11T06:20:09.375Z,40.57
2018-04-11T06:21:13.585Z,43.77
2018-04-11T06:22:17.790Z,41.40
2018-04-11T06:23:27.829Z,35.80
2018-04-11T06:24:35.738Z,37.87
2018-04-11T06:25:40.330Z,37.03
2018-04-11T06:26:44.536Z,35.53
2018-04-11T06:27:48.740Z,35.93
2018-04-11T06:28:58.923Z,35.77
2018-04-11T06:30:05.309Z,37.50
2018-04-11T06:31:09.676Z,41.20
2018-04-11T06:32:14.668Z,40.90
2018-04-11T06:33:18.878Z,36.57
2018-04-11T06:34:28.119Z,36.60
2018-04-11T06:35:36.043Z,37.67
2018-04-11T06:36:41.098Z,37.30
2018-04-11T06:37:45.333Z,38.13
2018-04-11T06:38:49.542Z,44.10
2018-04-11T06:40:00.972Z,34.20
2018-04-11T06:41:08.083Z,33.50
2018-04-11T06:42:12.353Z,42.03
2018-04-11T06:43:16.562Z,36.93
2018-04-11T06:44:24.448Z,35.73
2018-04-11T06:45:33.103Z,34.03
2018-04-11T06:46:38.878Z,40.47
2018-04-11T06:47:43.476Z,39.50
2018-04-11T06:48:47.751Z,39.30
2018-04-11T06:49:54.151Z,35.63
2018-04-11T06:51:02.221Z,36.73
2018-04-11T06:52:09.202Z,37.80
2018-04-11T06:53:13.577Z,37.60
2018-04-11T06:54:17.772Z,37.57
2018-04-11T06:55:24.008Z,33.77
2018-04-11T06:56:29.383Z,32.17
2018-04-11T06:57:35.034Z,42.23
2018-04-11T06:58:40.420Z,34.97
2018-04-11T06:59:45.401Z,34.07
2018-04-11T07:00:49.602Z,36.40
2018-04-11T07:01:58.657Z,31.40
2018-04-11T07:03:04.567Z,33.73
2018-04-11T07:04:08.920Z,42.77
2018-04-11T07:05:13.182Z,34.40
2018-04-11T07:06:17.406Z,36.57
2018-04-11T07:07:24.472Z,33.40
2018-04-11T07:08:33.276Z,26.37
2018-04-11T07:09:39.315Z,30.80
2018-04-11T07:10:44.685Z,29.50
2018-04-11T07:11:48.898Z,33.60
2018-04-11T07:13:00.424Z,34.97
2018-04-11T07:14:06.312Z,36.33
2018-04-11T07:15:10.553Z,30.30
2018-04-11T07:16:14.818Z,34.03
2018-04-11T07:17:19.803Z,30.83
2018-04-11T07:18:24.947Z,32.70
2018-04-11T07:19:29.474Z,33.23
2018-04-11T07:20:34.584Z,30.03
2018-04-11T07:21:38.841Z,34.67
2018-04-11T07:22:43.831Z,33.87
2018-04-11T07:23:48.868Z,29.10
2018-04-11T07:24:53.178Z,31.07
2018-04-11T07:25:57.457Z,32.43
2018-04-11T07:27:02.078Z,34.03
2018-04-11T07:28:06.288Z,30.80
2018-04-11T07:29:10.508Z,29.90
2018-04-11T07:30:14.731Z,33.77
2018-04-11T07:31:18.938Z,29.67
2018-04-11T07:32:23.533Z,29.03
2018-04-11T07:33:28.632Z,27.10
2018-04-11T07:34:34.195Z,35.87
2018-04-11T07:35:39.169Z,24.60
2018-04-11T07:36:43.395Z,33.73
2018-04-11T07:37:47.604Z,24.03
2018-04-11T07:38:54.295Z,29.77
2018-04-11T07:40:04.251Z,26.50
2018-04-11T07:41:08.945Z,26.97
2018-04-11T07:42:13.169Z,25.40
2018-04-11T07:43:18.143Z,28.03
2018-04-11T07:44:28.297Z,34.43
2018-04-11T07:45:33.832Z,30.10
2018-04-11T07:46:39.233Z,28.00
2018-04-11T07:47:44.222Z,27.47
2018-04-11T07:48:48.447Z,29.03
2018-04-11T07:49:56.313Z,27.07
2018-04-11T07:51:03.462Z,24.67
2018-04-11T07:52:10.419Z,20.33
2018-04-11T07:53:15.403Z,33.70
2018-04-11T07:54:19.617Z,24.53
2018-04-11T07:55:28.269Z,23.77
2018-04-11T07:56:35.650Z,32.13
2018-04-11T07:57:40.043Z,35.40
2018-04-11T07:58:44.255Z,30.30
2018-04-11T07:59:48.481Z,26.40
2018-04-11T08:00:56.621Z,22.37
2018-04-11T08:02:04.160Z,27.20
2018-04-11T08:03:10.336Z,27.07
2018-04-11T08:04:14.520Z,28.30
2018-04-11T08:05:18.744Z,28.23
2018-04-11T08:06:28.024Z,24.77
2018-04-11T08:07:33.269Z,26.33
2018-04-11T08:08:39.117Z,26.63
2018-04-11T08:09:43.334Z,23.17
2018-04-11T08:10:47.541Z,23.90
2018-04-11T08:11:54.635Z,25.47
2018-04-11T08:13:00.846Z,27.33
2018-04-11T08:14:09.192Z,24.87
2018-04-11T08:15:13.413Z,25.47
2018-04-11T08:16:17.659Z,29.80
2018-04-11T08:17:25.163Z,33.23
2018-04-11T08:18:31.593Z,41.00
2018-04-11T08:19:37.108Z,34.27
2018-04-11T08:20:41.397Z,29.50
2018-04-11T08:21:45.622Z,20.77
2018-04-11T08:22:49.830Z,29.23
2018-04-11T08:23:58.459Z,32.03
2018-04-11T08:25:04.922Z,20.10
2018-04-11T08:26:09.815Z,26.17
2018-04-11T08:27:14.897Z,25.53
2018-04-11T08:28:19.110Z,34.83
2018-04-11T08:29:26.967Z,29.40
2018-04-11T08:30:33.271Z,26.30
2018-04-11T08:31:38.808Z,21.23
2018-04-11T08:32:43.026Z,26.30
2018-04-11T08:33:47.356Z,27.10
2018-04-11T08:34:55.213Z,24.77
2018-04-11T08:36:04.179Z,27.63
2018-04-11T08:37:08.433Z,25.83
2018-04-11T08:38:12.647Z,31.57
2018-04-11T08:39:16.886Z,26.47
2018-04-11T08:40:24.130Z,22.97
2018-04-11T08:41:30.735Z,29.13
2018-04-11T08:42:37.260Z,24.40
2018-04-11T08:43:42.262Z,31.67
2018-04-11T08:44:46.506Z,21.87
2018-04-11T08:45:52.076Z,35.27
2018-04-11T08:47:01.595Z,30.53
2018-04-11T08:48:08.722Z,31.20
2018-04-11T08:49:12.939Z,24.87
2018-04-11T08:50:16.499Z,30.63
2018-04-11T08:51:21.033Z,26.60
2018-04-11T08:52:31.201Z,31.07
2018-04-11T08:53:37.572Z,27.50
2018-04-11T08:54:41.793Z,36.17
2018-04-11T08:55:46.774Z,27.00
2018-04-11T08:56:51.378Z,24.60
2018-04-11T08:58:02.486Z,30.37
2018-04-11T08:59:08.271Z,25.20
2018-04-11T09:00:12.861Z,30.43
2018-04-11T09:01:17.079Z,27.53
2018-04-11T09:02:23.205Z,33.13
2018-04-11T09:03:29.235Z,22.63
2018-04-11T09:04:36.424Z,25.70
2018-04-11T09:05:40.891Z,26.70
2018-04-11T09:06:45.865Z,24.67
2018-04-11T09:07:50.275Z,25.97
2018-04-11T09:08:58.064Z,32.63
2018-04-11T09:10:03.245Z,26.07
2018-04-11T09:11:07.845Z,26.37
2018-04-11T09:12:12.095Z,31.57
2018-04-11T09:13:16.315Z,26.50
2018-04-11T09:14:23.739Z,28.40
2018-04-11T09:15:30.417Z,26.67
2018-04-11T09:16:37.096Z,23.13
2018-04-11T09:17:41.318Z,24.50
2018-04-11T09:18:45.521Z,28.60
2018-04-11T09:19:49.787Z,27.13
2018-04-11T09:20:57.350Z,23.03
2018-04-11T09:22:02.220Z,25.90
2018-04-11T09:23:08.011Z,24.80
2018-04-11T09:24:12.251Z,24.17
2018-04-11T09:25:16.514Z,23.97
2018-04-11T09:26:22.347Z,29.00
2018-04-11T09:27:31.871Z,22.80
2018-04-11T09:28:38.165Z,28.03
2018-04-11T09:29:42.592Z,27.93
2018-04-11T09:30:46.857Z,27.70
2018-04-11T09:31:53.918Z,29.00
2018-04-11T09:33:02.554Z,33.17
2018-04-11T09:34:10.474Z,34.23
2018-04-11T09:35:14.771Z,27.07
2018-04-11T09:36:18.998Z,24.70
2018-04-11T09:37:28.732Z,27.13
2018-04-11T09:38:37.069Z,25.80
2018-04-11T09:39:42.388Z,26.93
2018-04-11T09:40:46.590Z,25.03
2018-04-11T09:41:53.556Z,31.40
2018-04-11T09:43:07.697Z,29.77
2018-04-11T09:44:13.797Z,32.43
2018-04-11T09:45:17.996Z,30.40
2018-04-11T09:46:32.594Z,31.03
2018-04-11T09:47:42.049Z,24.70
2018-04-11T09:48:46.300Z,25.47
2018-04-11T09:49:51.457Z,25.83
2018-04-11T09:51:05.470Z,28.53
2018-04-11T09:52:11.181Z,32.13
2018-04-11T09:53:15.388Z,28.53
2018-04-11T09:54:19.611Z,26.60
2018-04-11T09:55:31.965Z,27.33
2018-04-11T09:56:40.203Z,27.33
2018-04-11T09:57:44.469Z,23.13
2018-04-11T09:58:48.687Z,30.37
2018-04-11T10:00:00.457Z,26.73
2018-04-11T10:01:08.553Z,25.43
2018-04-11T10:02:18.499Z,26.03
2018-04-11T10:03:29.436Z,29.67
2018-04-11T10:04:35.503Z,23.67
2018-04-11T10:05:40.352Z,25.33
2018-04-11T10:06:44.629Z,27.17
2018-04-11T10:07:48.847Z,30.20
2018-04-11T10:08:56.619Z,30.30
2018-04-11T10:10:01.648Z,33.17
2018-04-11T10:11:06.866Z,23.20
2018-04-11T10:12:11.421Z,26.00
2018-04-11T10:13:15.641Z,24.43
2018-04-11T10:14:19.906Z,25.33
2018-04-11T10:15:31.378Z,20.20
2018-04-11T10:16:37.480Z,25.43
2018-04-11T10:17:41.712Z,27.93
2018-04-11T10:18:45.937Z,26.90
2018-04-11T10:19:50.753Z,21.60
2018-04-11T10:21:00.830Z,24.47
2018-04-11T10:22:08.235Z,26.27
2018-04-11T10:23:13.038Z,26.53
2018-04-11T10:24:17.253Z,28.40
2018-04-11T10:25:28.675Z,21.77
2018-04-11T10:26:38.623Z,24.20
2018-04-11T10:27:43.964Z,48.67
2018-04-11T10:28:48.174Z,29.27
2018-04-11T10:29:57.067Z,27.53
2018-04-11T10:31:04.048Z,26.33
2018-04-11T10:32:10.009Z,24.03
2018-04-11T10:33:14.224Z,29.13
2018-04-11T10:34:18.458Z,21.83
2018-04-11T10:35:26.396Z,25.00
2018-04-11T10:36:32.537Z,29.77
2018-04-11T10:37:38.799Z,26.80
2018-04-11T10:38:44.019Z,25.20
2018-04-11T10:39:48.247Z,25.93
2018-04-11T10:41:01.033Z,32.90
2018-04-11T10:42:06.407Z,26.00
2018-04-11T10:43:10.754Z,36.77
2018-04-11T10:44:14.956Z,26.07
2018-04-11T10:45:19.927Z,26.47
2018-04-11T10:46:31.282Z,28.83
2018-04-11T10:47:38.051Z,24.60
2018-04-11T10:48:43.866Z,24.70
2018-04-11T10:49:48.837Z,22.33
2018-04-11T10:50:57.615Z,24.03
2018-04-11T10:52:02.751Z,23.30
2018-04-11T10:53:08.774Z,21.90
2018-04-11T10:54:12.990Z,24.33
2018-04-11T10:55:17.194Z,31.63
2018-04-11T10:56:23.968Z,30.37
2018-04-11T10:57:29.822Z,24.10
2018-04-11T10:58:35.452Z,22.30
2018-04-11T10:59:39.757Z,25.33
2018-04-11T11:00:43.974Z,34.03
2018-04-11T11:01:48.189Z,23.27
2018-04-11T11:02:56.491Z,26.43
2018-04-11T11:04:02.630Z,18.93
2018-04-11T11:05:08.584Z,25.33
2018-04-11T11:06:12.792Z,27.70
2018-04-11T11:07:16.992Z,26.30
2018-04-11T11:08:23.328Z,26.83
2018-04-11T11:09:29.886Z,33.40
2018-04-11T11:10:35.833Z,21.27
2018-04-11T11:11:40.212Z,23.30
2018-04-11T11:12:45.339Z,21.90
2018-04-11T11:13:54.388Z,22.27
2018-04-11T11:15:01.142Z,29.13
2018-04-11T11:16:06.377Z,21.70
2018-04-11T11:17:10.771Z,29.70
2018-04-11T11:18:14.980Z,29.63
2018-04-11T11:19:19.209Z,32.67
2018-04-11T11:20:25.707Z,27.03
2018-04-11T11:21:31.298Z,20.87
2018-04-11T11:22:37.635Z,24.83
2018-04-11T11:23:42.734Z,23.77
2018-04-11T11:24:46.949Z,21.57
2018-04-11T11:25:51.834Z,21.37
2018-04-11T11:27:03.455Z,21.10
2018-04-11T11:28:08.211Z,21.87
2018-04-11T11:29:12.454Z,27.40
2018-04-11T11:30:17.449Z,22.90
2018-04-11T11:31:27.268Z,23.50
2018-04-11T11:32:32.406Z,28.27
2018-04-11T11:33:38.235Z,23.10
2018-04-11T11:34:42.482Z,28.97
2018-04-11T11:35:47.448Z,22.13
2018-04-11T11:36:53.843Z,24.23
2018-04-11T11:38:00.865Z,24.73
2018-04-11T11:39:07.555Z,33.00
2018-04-11T11:40:11.765Z,24.80
2018-04-11T11:41:15.978Z,24.33
2018-04-11T11:42:20.219Z,26.53
2018-04-11T11:43:28.679Z,23.93
2018-04-11T11:44:35.163Z,25.53
2018-04-11T11:45:41.558Z,24.50
2018-04-11T11:46:46.569Z,22.30
2018-04-11T11:47:53.644Z,25.73
2018-04-11T11:49:02.862Z,26.10
2018-04-11T11:50:08.756Z,33.30
2018-04-11T11:51:13.062Z,31.60
2018-04-11T11:52:17.306Z,33.37
2018-04-11T11:53:28.862Z,23.63
2018-04-11T11:54:34.897Z,23.40
2018-04-11T11:55:40.492Z,25.17
2018-04-11T11:56:44.715Z,27.47
2018-04-11T11:57:48.993Z,23.70
2018-04-11T11:59:00.637Z,29.00
2018-04-11T12:00:06.985Z,30.50
2018-04-11T12:01:11.273Z,28.13
2018-04-11T12:02:15.950Z,27.00
2018-04-11T12:03:20.311Z,25.87
2018-04-11T12:04:30.893Z,21.03
2018-04-11T12:05:37.366Z,29.30
2018-04-11T12:06:41.631Z,22.13
2018-04-11T12:07:45.870Z,25.47
2018-04-11T12:08:50.245Z,26.70
2018-04-11T12:09:59.907Z,21.47
2018-04-11T12:11:05.137Z,23.43
2018-04-11T12:12:10.327Z,27.37
2018-04-11T12:13:14.554Z,20.53
2018-04-11T12:14:19.219Z,24.80
2018-04-11T12:15:27.162Z,23.27
2018-04-11T12:16:33.418Z,23.70
2018-04-11T12:17:37.922Z,27.27
2018-04-11T12:18:42.631Z,28.47
2018-04-11T12:19:46.856Z,23.90
2018-04-11T12:20:52.883Z,27.33
2018-04-11T12:22:00.294Z,27.00
2018-04-11T12:23:05.493Z,21.07
2018-04-11T12:24:09.852Z,27.43
2018-04-11T12:25:14.062Z,26.40
2018-04-11T12:26:19.085Z,25.50
2018-04-11T12:27:27.508Z,28.70
2018-04-11T12:28:33.686Z,25.67
2018-04-11T12:29:38.154Z,24.90
2018-04-11T12:30:42.388Z,23.57
2018-04-11T12:31:46.597Z,33.60
2018-04-11T12:32:51.224Z,28.70
2018-04-11T12:33:58.680Z,23.97
2018-04-11T12:35:05.631Z,21.50
2018-04-11T12:36:10.420Z,28.60
2018-04-11T12:37:15.818Z,22.73
2018-04-11T12:38:20.075Z,29.53
2018-04-11T12:39:25.351Z,25.30
2018-04-11T12:40:31.206Z,27.30
2018-04-11T12:41:38.269Z,22.83
2018-04-11T12:42:43.286Z,27.23
2018-04-11T12:43:48.267Z,27.63
2018-04-11T12:44:54.459Z,26.40
2018-04-11T12:46:15.393Z,24.17
2018-04-11T12:47:19.990Z,27.27
2018-04-11T12:48:25.664Z,22.77
2018-04-11T12:49:31.455Z,27.00
2018-04-11T12:50:37.249Z,26.50
2018-04-11T12:51:41.522Z,21.97
2018-04-11T12:52:45.735Z,27.37
2018-04-11T12:53:50.007Z,30.67
2018-04-11T12:54:57.452Z,26.27
2018-04-11T12:56:04.319Z,30.30
2018-04-11T12:57:08.642Z,23.60
2018-04-11T12:58:12.920Z,29.80
2018-04-11T12:59:17.194Z,30.57
2018-04-11T13:00:22.941Z,27.93
2018-04-11T13:01:29.188Z,23.70
2018-04-11T13:02:36.000Z,26.40
2018-04-11T13:03:40.249Z,25.40
2018-04-11T13:04:44.817Z,34.87
2018-04-11T13:05:49.040Z,24.63
2018-04-11T13:06:58.923Z,29.10
2018-04-11T13:08:04.558Z,35.27
2018-04-11T13:09:08.945Z,25.43
2018-04-11T13:10:13.195Z,25.27
2018-04-11T13:11:17.503Z,28.23
2018-04-11T13:12:23.533Z,39.13
2018-04-11T13:13:30.735Z,36.73
2018-04-11T13:14:37.350Z,28.00
2018-04-11T13:15:41.570Z,27.97
2018-04-11T13:16:45.795Z,30.97
2018-04-11T13:17:50.011Z,26.47
2018-04-11T13:19:00.069Z,31.73
2018-04-11T13:20:06.145Z,25.40
2018-04-11T13:21:11.313Z,29.40
2018-04-11T13:22:15.539Z,26.07
2018-04-11T13:23:19.767Z,27.13
2018-04-11T13:24:26.979Z,29.43
2018-04-11T13:25:32.119Z,27.37
2018-04-11T13:26:36.579Z,23.60
2018-04-11T13:27:40.811Z,27.53
2018-04-11T13:28:45.026Z,22.60
2018-04-11T13:29:49.274Z,22.00
2018-04-11T13:30:55.341Z,28.53
2018-04-11T13:32:01.061Z,24.10
2018-04-11T13:33:06.673Z,35.63
2018-04-11T13:34:10.879Z,23.77
2018-04-11T13:35:15.080Z,25.33
2018-04-11T13:36:20.325Z,29.20
2018-04-11T13:37:26.713Z,22.67
2018-04-11T13:38:33.584Z,29.27
2018-04-11T13:39:38.712Z,26.50
2018-04-11T13:40:42.926Z,25.10
2018-04-11T13:41:47.149Z,29.53
2018-04-11T13:42:54.246Z,23.40
2018-04-11T13:44:03.824Z,23.60
2018-04-11T13:45:09.516Z,31.10
2018-04-11T13:46:14.648Z,26.50
2018-04-11T13:47:18.862Z,29.33
2018-04-11T13:48:26.067Z,28.70
2018-04-11T13:49:31.919Z,32.43
2018-04-11T13:50:38.535Z,27.07
2018-04-11T13:51:42.764Z,24.00
2018-04-11T13:52:46.989Z,24.40
2018-04-11T13:53:54.933Z,29.67
2018-04-11T13:55:05.438Z,26.17
2018-04-11T13:56:10.254Z,22.70
2018-04-11T13:57:14.464Z,24.87
2018-04-11T13:58:18.682Z,23.37
2018-04-11T13:59:28.247Z,27.27
2018-04-11T14:00:33.475Z,33.97
2018-04-11T14:01:38.635Z,27.17
2018-04-11T14:02:42.858Z,26.13
2018-04-11T14:03:47.069Z,28.47
2018-04-11T14:04:54.341Z,29.37
2018-04-11T14:06:01.108Z,29.60
2018-04-11T14:07:06.234Z,27.50
2018-04-11T14:08:10.581Z,27.43
2018-04-11T14:09:14.811Z,35.93
2018-04-11T14:10:19.027Z,31.23
2018-04-11T14:11:29.183Z,24.80
2018-04-11T14:12:35.638Z,26.10
2018-04-11T14:13:40.563Z,28.80